PDT,Max TemperatureF,Mean TemperatureF,Min TemperatureF,Max Dew PointF,MeanDew PointF,Min DewpointF,Max Humidity, Mean Humidity, Min Humidity, Max Sea Level PressureIn, Mean Sea Level PressureIn, Min Sea Level PressureIn, Max VisibilityMiles, Mean VisibilityMiles, Min VisibilityMiles, Max Wind SpeedMPH, Mean Wind SpeedMPH, Max Gust SpeedMPH,PrecipitationIn, CloudCover, Events, WindDirDegrees
2012-9-1,64,56,48,50,48,45,90,75,60,30.15,30.11,30.01,10,10,10,15,9,20,0.00,0,,293
2012-9-2,68,57,50,51,49,45,90,74,58,30.20,30.17,30.15,10,10,10,10,6,,0.00,1,,292
2012-9-3,70,60,50,53,51,47,97,85,51,30.20,30.18,30.15,10,7,0,12,5,,0.00,5,Fog,300
2012-9-4,73,60,46,51,49,45,97,76,44,30.24,30.19,30.12,10,9,0,10,3,,0.00,1,Fog,124
2012-9-5,72,60,48,53,50,46,90,72,51,30.12,30.03,29.95,10,10,10,9,3,,0.00,0,,92
2012-9-6,79,66,53,50,47,42,86,57,28,30.07,30.04,29.98,10,10,10,8,5,,0.00,0,,164
2012-9-7,79,66,53,51,47,44,77,53,33,30.16,30.10,30.04,10,10,10,12,6,,0.00,0,,179
2012-9-8,70,60,52,55,51,46,87,70,47,30.04,29.98,29.93,10,10,10,16,5,24,0.00,1,,285
2012-9-9,68,60,53,53,51,48,94,76,52,29.98,29.95,29.91,10,9,3,18,4,28,0.05,7,Rain,317
2012-9-10,64,57,50,49,44,39,80,66,46,30.24,30.13,29.96,10,10,10,22,14,32,0.00,1,,285
2012-9-11,63,53,44,47,39,35,86,62,39,30.35,30.31,30.24,10,10,10,13,8,,0.00,0,,255
2012-9-12,64,54,43,47,42,37,86,67,43,30.40,30.34,30.27,10,10,10,10,6,,0.00,0,,137
2012-9-13,73,59,45,48,42,37,74,55,29,30.27,30.17,30.07,10,10,10,9,5,,0.00,0,,179
2012-9-14,75,60,45,48,44,39,80,59,33,30.12,30.08,30.03,10,10,10,8,3,,0.00,0,,118
2012-9-15,66,56,48,52,49,44,93,79,58,30.19,30.15,30.07,10,10,10,7,2,,0.00,0,,321
2012-9-16,79,62,45,51,46,40,93,65,25,30.25,30.19,30.13,10,10,10,9,2,,0.00,0,,116
2012-9-17,78,63,48,49,44,41,80,55,27,30.15,30.09,30.02,10,10,10,9,3,,0.00,0,,129
2012-9-18,78,64,50,49,45,41,89,60,33,30.08,30.04,30.01,10,10,10,10,4,,0.00,0,,266
2012-9-19,66,55,46,53,49,46,100,91,61,30.18,30.12,30.09,10,5,0,7,5,,0.00,4,Fog,284
2012-9-20,68,53,44,51,48,44,100,91,64,30.12,30.09,30.04,10,5,0,13,5,21,0.00,4,Fog,286
2012-9-21,60,56,53,55,52,50,93,85,75,30.15,30.13,30.12,10,10,4,10,4,,0.00,8,,162
2012-9-22,66,56,48,53,46,42,93,68,45,30.16,30.15,30.14,10,10,10,12,5,18,0.00,3,,279
2012-9-23,66,56,46,48,46,42,90,72,52,30.18,30.15,30.13,10,10,10,10,6,,0.00,0,,261
2012-9-24,63,53,44,54,49,43,100,89,64,30.16,30.13,30.12,10,6,0,9,5,,0.00,6,Fog,299
2012-9-25,63,54,45,50,47,43,96,85,58,30.16,30.13,30.12,10,9,2,9,6,,0.00,3,,288
2012-9-26,64,54,43,48,46,42,97,90,58,30.14,30.12,30.07,10,4,0,8,2,,0.00,3,Fog-Rain,287
2012-9-27,70,56,43,50,46,42,97,73,42,30.09,30.04,29.96,10,10,10,8,2,,0.00,0,,86
2012-9-28,69,60,52,58,53,48,90,79,56,30.07,29.99,29.94,10,10,10,14,4,18,0.00,3,,292
2012-9-29,60,52,46,50,47,42,93,79,67,30.33,30.20,30.07,10,10,10,12,7,22,0.00,2,,311
2012-9-30,64,52,39,46,43,37,97,79,46,30.42,30.38,30.32,10,10,6,7,3,,0.00,0,,272